sensor_id;sensor_type;location;lat;lon;timestamp;P1;durP1;ratioP1;P2;durP2;ratioP2
65393;SDS011;52002;49.760;6.512;2024-01-15T00:00:13;24.60;;;9.20;;
65393;SDS011;52002;49.760;6.512;2024-01-15T00:02:38;22.90;;;8.90;;
65393;SDS011;52002;49.760;6.512;2024-01-15T00:05:04;28.70;;;9.40;;
65393;SDS011;52002;49.760;6.512;2024-01-15T00:07:30;28.30;;;9.40;;
65393;SDS011;52002;49.760;6.512;2024-01-15T00:09:55;25.30;;;9.20;;
65393;SDS011;52002;49.760;6.512;2024-01-15T00:12:20;25.20;;;9.30;;
65393;SDS011;52002;49.760;6.512;2024-01-15T00:14:46;27.30;;;9.80;;
65393;SDS011;52002;49.760;6.512;2024-01-15T00:17:11;28.10;;;9.50;;
65393;SDS011;52002;49.760;6.512;2024-01-15T00:19:36;22.80;;;9.20;;
65393;SDS011;52002;49.760;6.512;2024-01-15T00:22:02;28.10;;;10.10;;
65393;SDS011;52002;49.760;6.512;2024-01-15T00:24:27;29.20;;;9.60;;
65393;SDS011;52002;49.760;6.512;2024-01-15T00:26:53;25.50;;;10.00;;
65393;SDS011;52002;49.760;6.512;2024-01-15T00:29:19;30.40;;;9.40;;
65393;SDS011;52002;49.760;6.512;2024-01-15T00:31:44;26.70;;;9.60;;
65393;SDS011;52002;49.760;6.512;2024-01-15T00:34:09;31.40;;;9.90;;
65393;SDS011;52002;49.760;6.512;2024-01-15T00:36:35;24.00;;;9.30;;
65393;SDS011;52002;49.760;6.512;2024-01-15T00:39:01;32.90;;;10.40;;
65393;SDS011;52002;49.760;6.512;2024-01-15T00:41:26;29.90;;;10.80;;
65393;SDS011;52002;49.760;6.512;2024-01-15T00:43:53;37.90;;;11.60;;
65393;SDS011;52002;49.760;6.512;2024-01-15T00:46:18;31.50;;;11.30;;
65393;SDS011;52002;49.760;6.512;2024-01-15T00:48:44;34.20;;;11.90;;
65393;SDS011;52002;49.760;6.512;2024-01-15T00:51:09;35.50;;;11.70;;
65393;SDS011;52002;49.760;6.512;2024-01-15T00:53:35;37.00;;;11.30;;
65393;SDS011;52002;49.760;6.512;2024-01-15T00:56:00;42.90;;;11.60;;
65393;SDS011;52002;49.760;6.512;2024-01-15T00:58:26;36.70;;;11.20;;
65393;SDS011;52002;49.760;6.512;2024-01-15T01:00:51;33.00;;;11.60;;
65393;SDS011;52002;49.760;6.512;2024-01-15T01:03:17;39.40;;;12.40;;
65393;SDS011;52002;49.760;6.512;2024-01-15T01:05:42;29.70;;;11.20;;
65393;SDS011;52002;49.760;6.512;2024-01-15T01:08:09;35.20;;;11.30;;
65393;SDS011;52002;49.760;6.512;2024-01-15T01:10:34;39.40;;;11.60;;
65393;SDS011;52002;49.760;6.512;2024-01-15T01:13:00;36.70;;;11.80;;
65393;SDS011;52002;49.760;6.512;2024-01-15T01:15:25;40.60;;;11.90;;
65393;SDS011;52002;49.760;6.512;2024-01-15T01:17:51;37.60;;;11.70;;
65393;SDS011;52002;49.760;6.512;2024-01-15T01:20:16;37.10;;;12.00;;
65393;SDS011;52002;49.760;6.512;2024-01-15T01:22:41;40.50;;;13.60;;
65393;SDS011;52002;49.760;6.512;2024-01-15T01:25:07;35.40;;;12.50;;
65393;SDS011;52002;49.760;6.512;2024-01-15T01:27:33;38.60;;;13.20;;
65393;SDS011;52002;49.760;6.512;2024-01-15T01:30:00;37.00;;;11.90;;
65393;SDS011;52002;49.760;6.512;2024-01-15T01:32:25;39.80;;;12.00;;
65393;SDS011;52002;49.760;6.512;2024-01-15T01:34:50;32.90;;;11.60;;
65393;SDS011;52002;49.760;6.512;2024-01-15T01:37:16;36.20;;;12.20;;
65393;SDS011;52002;49.760;6.512;2024-01-15T01:39:42;32.10;;;10.50;;
65393;SDS011;52002;49.760;6.512;2024-01-15T01:42:08;35.30;;;11.30;;
65393;SDS011;52002;49.760;6.512;2024-01-15T01:44:34;35.20;;;11.90;;
65393;SDS011;52002;49.760;6.512;2024-01-15T01:46:59;35.60;;;11.90;;
65393;SDS011;52002;49.760;6.512;2024-01-15T01:49:26;41.00;;;12.00;;
65393;SDS011;52002;49.760;6.512;2024-01-15T01:51:53;37.70;;;11.40;;
65393;SDS011;52002;49.760;6.512;2024-01-15T01:54:22;37.20;;;11.60;;
65393;SDS011;52002;49.760;6.512;2024-01-15T01:56:49;37.70;;;12.20;;
65393;SDS011;52002;49.760;6.512;2024-01-15T01:59:16;42.80;;;12.00;;
65393;SDS011;52002;49.760;6.512;2024-01-15T02:01:41;30.80;;;11.90;;
65393;SDS011;52002;49.760;6.512;2024-01-15T02:04:08;37.20;;;12.00;;
65393;SDS011;52002;49.760;6.512;2024-01-15T02:06:34;34.70;;;12.10;;
65393;SDS011;52002;49.760;6.512;2024-01-15T02:08:59;36.80;;;11.40;;
65393;SDS011;52002;49.760;6.512;2024-01-15T02:11:25;34.40;;;11.10;;
65393;SDS011;52002;49.760;6.512;2024-01-15T02:13:51;36.90;;;12.10;;
65393;SDS011;52002;49.760;6.512;2024-01-15T02:16:17;33.00;;;11.60;;
65393;SDS011;52002;49.760;6.512;2024-01-15T02:18:43;36.20;;;10.40;;
65393;SDS011;52002;49.760;6.512;2024-01-15T02:21:10;38.20;;;12.30;;
65393;SDS011;52002;49.760;6.512;2024-01-15T02:23:37;33.00;;;11.80;;
65393;SDS011;52002;49.760;6.512;2024-01-15T02:26:04;37.90;;;11.80;;
65393;SDS011;52002;49.760;6.512;2024-01-15T02:28:30;42.30;;;13.20;;
65393;SDS011;52002;49.760;6.512;2024-01-15T02:30:57;33.90;;;11.80;;
65393;SDS011;52002;49.760;6.512;2024-01-15T02:33:23;40.20;;;13.00;;
65393;SDS011;52002;49.760;6.512;2024-01-15T02:35:48;38.70;;;12.50;;
65393;SDS011;52002;49.760;6.512;2024-01-15T02:38:17;40.80;;;12.70;;
65393;SDS011;52002;49.760;6.512;2024-01-15T02:40:43;37.60;;;12.70;;
65393;SDS011;52002;49.760;6.512;2024-01-15T02:43:09;33.80;;;11.40;;
65393;SDS011;52002;49.760;6.512;2024-01-15T02:45:34;41.70;;;13.40;;
65393;SDS011;52002;49.760;6.512;2024-01-15T02:48:00;33.50;;;11.30;;
65393;SDS011;52002;49.760;6.512;2024-01-15T02:50:25;36.90;;;12.40;;
65393;SDS011;52002;49.760;6.512;2024-01-15T02:52:51;37.40;;;12.10;;
65393;SDS011;52002;49.760;6.512;2024-01-15T02:55:17;34.80;;;12.20;;
65393;SDS011;52002;49.760;6.512;2024-01-15T02:57:42;39.30;;;12.50;;
65393;SDS011;52002;49.760;6.512;2024-01-15T03:00:08;36.80;;;13.80;;
65393;SDS011;52002;49.760;6.512;2024-01-15T03:02:37;42.20;;;13.00;;
65393;SDS011;52002;49.760;6.512;2024-01-15T03:05:05;44.20;;;13.20;;
65393;SDS011;52002;49.760;6.512;2024-01-15T03:07:32;33.00;;;12.80;;
65393;SDS011;52002;49.760;6.512;2024-01-15T03:09:58;41.30;;;12.20;;
65393;SDS011;52002;49.760;6.512;2024-01-15T03:12:23;42.20;;;12.30;;
65393;SDS011;52002;49.760;6.512;2024-01-15T03:14:48;38.80;;;12.20;;
65393;SDS011;52002;49.760;6.512;2024-01-15T03:17:14;38.40;;;12.50;;
65393;SDS011;52002;49.760;6.512;2024-01-15T03:19:39;46.00;;;13.50;;
65393;SDS011;52002;49.760;6.512;2024-01-15T03:22:04;36.90;;;13.50;;
65393;SDS011;52002;49.760;6.512;2024-01-15T03:24:31;37.70;;;12.60;;
65393;SDS011;52002;49.760;6.512;2024-01-15T03:26:56;42.50;;;13.70;;
65393;SDS011;52002;49.760;6.512;2024-01-15T03:29:22;33.60;;;12.20;;
65393;SDS011;52002;49.760;6.512;2024-01-15T03:31:47;37.90;;;12.50;;
65393;SDS011;52002;49.760;6.512;2024-01-15T03:34:12;33.70;;;11.70;;
65393;SDS011;52002;49.760;6.512;2024-01-15T03:36:38;37.40;;;12.40;;
65393;SDS011;52002;49.760;6.512;2024-01-15T03:39:03;40.40;;;12.10;;
65393;SDS011;52002;49.760;6.512;2024-01-15T03:41:28;32.70;;;11.80;;
65393;SDS011;52002;49.760;6.512;2024-01-15T03:43:54;34.50;;;11.40;;
65393;SDS011;52002;49.760;6.512;2024-01-15T03:46:19;35.60;;;11.70;;
65393;SDS011;52002;49.760;6.512;2024-01-15T03:48:44;36.10;;;12.20;;
65393;SDS011;52002;49.760;6.512;2024-01-15T03:51:10;35.80;;;12.50;;
65393;SDS011;52002;49.760;6.512;2024-01-15T03:53:35;33.40;;;12.50;;
65393;SDS011;52002;49.760;6.512;2024-01-15T03:56:03;38.50;;;12.90;;
65393;SDS011;52002;49.760;6.512;2024-01-15T03:58:28;36.50;;;12.70;;
65393;SDS011;52002;49.760;6.512;2024-01-15T04:00:54;36.70;;;12.50;;
65393;SDS011;52002;49.760;6.512;2024-01-15T04:03:19;40.90;;;13.70;;
65393;SDS011;52002;49.760;6.512;2024-01-15T04:05:44;39.70;;;12.10;;
65393;SDS011;52002;49.760;6.512;2024-01-15T04:08:10;35.10;;;12.80;;
65393;SDS011;52002;49.760;6.512;2024-01-15T04:10:35;36.30;;;12.30;;
65393;SDS011;52002;49.760;6.512;2024-01-15T04:13:00;35.20;;;11.80;;
65393;SDS011;52002;49.760;6.512;2024-01-15T04:15:26;36.50;;;12.10;;
65393;SDS011;52002;49.760;6.512;2024-01-15T04:17:52;39.30;;;12.40;;
65393;SDS011;52002;49.760;6.512;2024-01-15T04:20:17;33.90;;;12.00;;
65393;SDS011;52002;49.760;6.512;2024-01-15T04:22:43;38.50;;;13.30;;
65393;SDS011;52002;49.760;6.512;2024-01-15T04:25:09;40.60;;;14.30;;
65393;SDS011;52002;49.760;6.512;2024-01-15T04:27:34;32.10;;;11.60;;
65393;SDS011;52002;49.760;6.512;2024-01-15T04:29:59;40.70;;;13.90;;
65393;SDS011;52002;49.760;6.512;2024-01-15T04:32:25;44.30;;;15.00;;
65393;SDS011;52002;49.760;6.512;2024-01-15T04:34:50;36.50;;;11.90;;
65393;SDS011;52002;49.760;6.512;2024-01-15T04:37:15;33.40;;;12.70;;
65393;SDS011;52002;49.760;6.512;2024-01-15T04:39:41;36.50;;;12.40;;
65393;SDS011;52002;49.760;6.512;2024-01-15T04:42:06;40.90;;;14.00;;
65393;SDS011;52002;49.760;6.512;2024-01-15T04:44:31;33.30;;;12.10;;
65393;SDS011;52002;49.760;6.512;2024-01-15T04:46:57;41.10;;;13.60;;
65393;SDS011;52002;49.760;6.512;2024-01-15T04:49:22;36.00;;;11.50;;
65393;SDS011;52002;49.760;6.512;2024-01-15T04:51:47;31.50;;;11.70;;
65393;SDS011;52002;49.760;6.512;2024-01-15T04:54:13;41.00;;;13.20;;
65393;SDS011;52002;49.760;6.512;2024-01-15T04:56:42;37.20;;;13.30;;
65393;SDS011;52002;49.760;6.512;2024-01-15T04:59:08;38.80;;;13.00;;
65393;SDS011;52002;49.760;6.512;2024-01-15T05:01:33;39.00;;;13.40;;
65393;SDS011;52002;49.760;6.512;2024-01-15T05:03:59;41.70;;;13.60;;
65393;SDS011;52002;49.760;6.512;2024-01-15T05:06:24;36.40;;;13.10;;
65393;SDS011;52002;49.760;6.512;2024-01-15T05:08:50;31.40;;;12.20;;
65393;SDS011;52002;49.760;6.512;2024-01-15T05:11:15;35.20;;;12.80;;
65393;SDS011;52002;49.760;6.512;2024-01-15T05:13:41;34.70;;;11.30;;
65393;SDS011;52002;49.760;6.512;2024-01-15T05:16:06;36.20;;;13.00;;
65393;SDS011;52002;49.760;6.512;2024-01-15T05:18:32;33.10;;;11.30;;
65393;SDS011;52002;49.760;6.512;2024-01-15T05:20:57;37.60;;;13.10;;
65393;SDS011;52002;49.760;6.512;2024-01-15T05:23:22;35.60;;;12.20;;
65393;SDS011;52002;49.760;6.512;2024-01-15T05:25:47;38.60;;;14.20;;
65393;SDS011;52002;49.760;6.512;2024-01-15T05:28:13;34.30;;;13.10;;
65393;SDS011;52002;49.760;6.512;2024-01-15T05:30:39;36.00;;;12.90;;
65393;SDS011;52002;49.760;6.512;2024-01-15T05:33:04;38.40;;;13.20;;
65393;SDS011;52002;49.760;6.512;2024-01-15T05:35:30;30.90;;;11.70;;
65393;SDS011;52002;49.760;6.512;2024-01-15T05:37:55;36.10;;;12.30;;
65393;SDS011;52002;49.760;6.512;2024-01-15T05:40:21;36.60;;;12.50;;
65393;SDS011;52002;49.760;6.512;2024-01-15T05:42:46;34.60;;;12.20;;
65393;SDS011;52002;49.760;6.512;2024-01-15T05:45:11;32.70;;;12.90;;
65393;SDS011;52002;49.760;6.512;2024-01-15T05:47:37;31.80;;;12.20;;
65393;SDS011;52002;49.760;6.512;2024-01-15T05:50:02;31.00;;;11.80;;
65393;SDS011;52002;49.760;6.512;2024-01-15T05:52:28;37.60;;;12.70;;
65393;SDS011;52002;49.760;6.512;2024-01-15T05:54:53;30.00;;;11.60;;
65393;SDS011;52002;49.760;6.512;2024-01-15T05:57:18;35.30;;;11.90;;
65393;SDS011;52002;49.760;6.512;2024-01-15T05:59:44;36.40;;;12.20;;
65393;SDS011;52002;49.760;6.512;2024-01-15T06:02:10;31.60;;;12.70;;
65393;SDS011;52002;49.760;6.512;2024-01-15T06:04:36;31.40;;;12.30;;
65393;SDS011;52002;49.760;6.512;2024-01-15T06:07:01;35.80;;;13.00;;
65393;SDS011;52002;49.760;6.512;2024-01-15T06:09:27;33.40;;;12.40;;
65393;SDS011;52002;49.760;6.512;2024-01-15T06:11:53;33.60;;;12.40;;
65393;SDS011;52002;49.760;6.512;2024-01-15T06:14:19;29.90;;;12.10;;
65393;SDS011;52002;49.760;6.512;2024-01-15T06:16:44;29.40;;;11.70;;
65393;SDS011;52002;49.760;6.512;2024-01-15T06:19:10;37.50;;;12.40;;
65393;SDS011;52002;49.760;6.512;2024-01-15T06:21:35;36.30;;;11.80;;
65393;SDS011;52002;49.760;6.512;2024-01-15T06:24:00;28.10;;;11.00;;
65393;SDS011;52002;49.760;6.512;2024-01-15T06:26:26;33.10;;;11.90;;
65393;SDS011;52002;49.760;6.512;2024-01-15T06:28:51;33.30;;;12.10;;
65393;SDS011;52002;49.760;6.512;2024-01-15T06:31:16;28.50;;;11.10;;
65393;SDS011;52002;49.760;6.512;2024-01-15T06:33:42;31.20;;;12.40;;
65393;SDS011;52002;49.760;6.512;2024-01-15T06:36:07;28.60;;;11.20;;
65393;SDS011;52002;49.760;6.512;2024-01-15T06:38:33;25.60;;;11.00;;
65393;SDS011;52002;49.760;6.512;2024-01-15T06:40:59;26.80;;;11.10;;
65393;SDS011;52002;49.760;6.512;2024-01-15T06:43:25;38.20;;;13.00;;
65393;SDS011;52002;49.760;6.512;2024-01-15T06:45:50;29.30;;;12.80;;
65393;SDS011;52002;49.760;6.512;2024-01-15T06:48:15;31.10;;;11.50;;
65393;SDS011;52002;49.760;6.512;2024-01-15T06:50:44;35.80;;;12.30;;
65393;SDS011;52002;49.760;6.512;2024-01-15T06:53:10;26.20;;;10.80;;
65393;SDS011;52002;49.760;6.512;2024-01-15T06:55:36;26.00;;;11.30;;
65393;SDS011;52002;49.760;6.512;2024-01-15T06:58:02;30.90;;;11.30;;
65393;SDS011;52002;49.760;6.512;2024-01-15T07:00:28;26.30;;;10.80;;
65393;SDS011;52002;49.760;6.512;2024-01-15T07:02:53;36.10;;;11.90;;
65393;SDS011;52002;49.760;6.512;2024-01-15T07:05:20;36.80;;;12.20;;
65393;SDS011;52002;49.760;6.512;2024-01-15T07:07:45;27.80;;;11.90;;
65393;SDS011;52002;49.760;6.512;2024-01-15T07:10:11;29.60;;;11.80;;
65393;SDS011;52002;49.760;6.512;2024-01-15T07:12:36;29.80;;;12.50;;
65393;SDS011;52002;49.760;6.512;2024-01-15T07:15:02;32.90;;;12.30;;
65393;SDS011;52002;49.760;6.512;2024-01-15T07:17:27;31.20;;;12.30;;
65393;SDS011;52002;49.760;6.512;2024-01-15T07:19:53;28.50;;;11.80;;
65393;SDS011;52002;49.760;6.512;2024-01-15T07:22:18;34.60;;;12.50;;
65393;SDS011;52002;49.760;6.512;2024-01-15T07:24:44;29.30;;;12.00;;
65393;SDS011;52002;49.760;6.512;2024-01-15T07:27:10;31.40;;;12.20;;
65393;SDS011;52002;49.760;6.512;2024-01-15T07:29:36;27.70;;;11.60;;
65393;SDS011;52002;49.760;6.512;2024-01-15T07:32:02;32.10;;;12.00;;
65393;SDS011;52002;49.760;6.512;2024-01-15T07:34:29;30.50;;;11.70;;
65393;SDS011;52002;49.760;6.512;2024-01-15T07:36:54;32.80;;;12.00;;
65393;SDS011;52002;49.760;6.512;2024-01-15T07:39:20;29.50;;;12.70;;
65393;SDS011;52002;49.760;6.512;2024-01-15T07:41:45;30.00;;;12.20;;
65393;SDS011;52002;49.760;6.512;2024-01-15T07:44:11;32.70;;;12.00;;
65393;SDS011;52002;49.760;6.512;2024-01-15T07:46:36;31.60;;;13.70;;
65393;SDS011;52002;49.760;6.512;2024-01-15T07:49:01;35.50;;;12.90;;
65393;SDS011;52002;49.760;6.512;2024-01-15T07:51:28;28.80;;;11.60;;
65393;SDS011;52002;49.760;6.512;2024-01-15T07:53:54;39.50;;;12.90;;
65393;SDS011;52002;49.760;6.512;2024-01-15T07:56:22;44.00;;;13.70;;
65393;SDS011;52002;49.760;6.512;2024-01-15T07:58:48;32.80;;;12.30;;
65393;SDS011;52002;49.760;6.512;2024-01-15T08:01:13;34.40;;;13.00;;
65393;SDS011;52002;49.760;6.512;2024-01-15T08:03:38;36.20;;;13.10;;
65393;SDS011;52002;49.760;6.512;2024-01-15T08:06:05;32.90;;;12.50;;
65393;SDS011;52002;49.760;6.512;2024-01-15T08:08:30;35.10;;;12.70;;
65393;SDS011;52002;49.760;6.512;2024-01-15T08:10:56;27.70;;;11.30;;
65393;SDS011;52002;49.760;6.512;2024-01-15T08:13:21;33.40;;;14.30;;
65393;SDS011;52002;49.760;6.512;2024-01-15T08:15:46;30.00;;;12.00;;
65393;SDS011;52002;49.760;6.512;2024-01-15T08:18:12;35.20;;;12.60;;
65393;SDS011;52002;49.760;6.512;2024-01-15T08:20:37;34.80;;;13.00;;
65393;SDS011;52002;49.760;6.512;2024-01-15T08:23:03;34.10;;;12.10;;
65393;SDS011;52002;49.760;6.512;2024-01-15T08:25:29;29.80;;;12.50;;
65393;SDS011;52002;49.760;6.512;2024-01-15T08:27:55;35.20;;;12.60;;
65393;SDS011;52002;49.760;6.512;2024-01-15T08:30:22;25.50;;;11.50;;
65393;SDS011;52002;49.760;6.512;2024-01-15T08:32:51;31.80;;;11.60;;
65393;SDS011;52002;49.760;6.512;2024-01-15T08:35:16;29.90;;;11.80;;
65393;SDS011;52002;49.760;6.512;2024-01-15T08:37:42;27.70;;;11.00;;
65393;SDS011;52002;49.760;6.512;2024-01-15T08:40:07;28.10;;;11.50;;
65393;SDS011;52002;49.760;6.512;2024-01-15T08:42:33;30.50;;;11.40;;
65393;SDS011;52002;49.760;6.512;2024-01-15T08:44:58;28.70;;;11.30;;
65393;SDS011;52002;49.760;6.512;2024-01-15T08:47:24;27.40;;;10.70;;
65393;SDS011;52002;49.760;6.512;2024-01-15T08:49:50;29.70;;;12.00;;
65393;SDS011;52002;49.760;6.512;2024-01-15T08:52:16;27.90;;;12.00;;
65393;SDS011;52002;49.760;6.512;2024-01-15T08:54:41;21.80;;;10.10;;
65393;SDS011;52002;49.760;6.512;2024-01-15T08:57:06;34.10;;;11.90;;
65393;SDS011;52002;49.760;6.512;2024-01-15T08:59:32;29.00;;;12.50;;
65393;SDS011;52002;49.760;6.512;2024-01-15T09:01:57;26.50;;;10.60;;
65393;SDS011;52002;49.760;6.512;2024-01-15T09:04:23;28.20;;;11.50;;
65393;SDS011;52002;49.760;6.512;2024-01-15T09:06:49;28.90;;;11.30;;
65393;SDS011;52002;49.760;6.512;2024-01-15T09:09:15;39.20;;;14.50;;
65393;SDS011;52002;49.760;6.512;2024-01-15T09:11:40;29.80;;;11.60;;
65393;SDS011;52002;49.760;6.512;2024-01-15T09:14:06;27.60;;;11.40;;
65393;SDS011;52002;49.760;6.512;2024-01-15T09:16:33;29.30;;;11.20;;
65393;SDS011;52002;49.760;6.512;2024-01-15T09:18:58;31.40;;;12.60;;
65393;SDS011;52002;49.760;6.512;2024-01-15T09:21:24;22.80;;;10.40;;
65393;SDS011;52002;49.760;6.512;2024-01-15T09:23:50;29.00;;;10.50;;
65393;SDS011;52002;49.760;6.512;2024-01-15T09:26:16;22.00;;;9.70;;
65393;SDS011;52002;49.760;6.512;2024-01-15T09:28:42;27.60;;;10.40;;
65393;SDS011;52002;49.760;6.512;2024-01-15T09:31:08;34.70;;;11.30;;
65393;SDS011;52002;49.760;6.512;2024-01-15T09:33:33;25.50;;;10.10;;
65393;SDS011;52002;49.760;6.512;2024-01-15T09:36:02;26.40;;;10.10;;
65393;SDS011;52002;49.760;6.512;2024-01-15T09:38:29;23.30;;;10.70;;
65393;SDS011;52002;49.760;6.512;2024-01-15T09:40:57;23.40;;;10.90;;
65393;SDS011;52002;49.760;6.512;2024-01-15T09:43:23;21.00;;;9.30;;
65393;SDS011;52002;49.760;6.512;2024-01-15T09:45:51;29.10;;;11.50;;
65393;SDS011;52002;49.760;6.512;2024-01-15T09:48:18;24.70;;;9.50;;
65393;SDS011;52002;49.760;6.512;2024-01-15T09:50:44;21.90;;;9.10;;
65393;SDS011;52002;49.760;6.512;2024-01-15T09:53:10;30.30;;;9.90;;
65393;SDS011;52002;49.760;6.512;2024-01-15T09:55:36;23.30;;;9.10;;
65393;SDS011;52002;49.760;6.512;2024-01-15T09:58:05;28.60;;;11.10;;
65393;SDS011;52002;49.760;6.512;2024-01-15T10:00:30;27.10;;;10.70;;
65393;SDS011;52002;49.760;6.512;2024-01-15T10:03:01;24.20;;;9.90;;
65393;SDS011;52002;49.760;6.512;2024-01-15T10:05:30;26.60;;;9.90;;
65393;SDS011;52002;49.760;6.512;2024-01-15T10:07:56;31.60;;;12.30;;
65393;SDS011;52002;49.760;6.512;2024-01-15T10:10:23;28.80;;;10.20;;
65393;SDS011;52002;49.760;6.512;2024-01-15T10:12:49;21.40;;;9.20;;
65393;SDS011;52002;49.760;6.512;2024-01-15T10:15:14;24.00;;;9.90;;
65393;SDS011;52002;49.760;6.512;2024-01-15T10:17:40;21.90;;;9.40;;
65393;SDS011;52002;49.760;6.512;2024-01-15T10:20:11;22.30;;;8.80;;
65393;SDS011;52002;49.760;6.512;2024-01-15T10:22:41;18.20;;;8.50;;
65393;SDS011;52002;49.760;6.512;2024-01-15T10:25:11;20.10;;;8.00;;
65393;SDS011;52002;49.760;6.512;2024-01-15T10:27:37;16.90;;;8.10;;
65393;SDS011;52002;49.760;6.512;2024-01-15T10:30:03;17.30;;;8.30;;
65393;SDS011;52002;49.760;6.512;2024-01-15T10:32:30;20.00;;;10.10;;
65393;SDS011;52002;49.760;6.512;2024-01-15T10:34:55;18.50;;;8.70;;
65393;SDS011;52002;49.760;6.512;2024-01-15T10:37:21;18.00;;;8.30;;
65393;SDS011;52002;49.760;6.512;2024-01-15T10:39:48;17.10;;;7.60;;
65393;SDS011;52002;49.760;6.512;2024-01-15T10:42:14;18.20;;;8.40;;
65393;SDS011;52002;49.760;6.512;2024-01-15T10:44:41;17.30;;;8.90;;
65393;SDS011;52002;49.760;6.512;2024-01-15T10:47:08;14.10;;;7.60;;
65393;SDS011;52002;49.760;6.512;2024-01-15T10:49:34;12.50;;;6.80;;
65393;SDS011;52002;49.760;6.512;2024-01-15T10:52:00;16.30;;;7.80;;
65393;SDS011;52002;49.760;6.512;2024-01-15T10:54:26;16.90;;;7.10;;
65393;SDS011;52002;49.760;6.512;2024-01-15T10:56:52;12.60;;;6.80;;
65393;SDS011;52002;49.760;6.512;2024-01-15T10:59:19;13.70;;;7.10;;
65393;SDS011;52002;49.760;6.512;2024-01-15T11:01:46;26.90;;;13.30;;
65393;SDS011;52002;49.760;6.512;2024-01-15T11:04:12;35.70;;;16.80;;
65393;SDS011;52002;49.760;6.512;2024-01-15T11:06:45;17.60;;;7.50;;
65393;SDS011;52002;49.760;6.512;2024-01-15T11:09:12;16.80;;;8.50;;
65393;SDS011;52002;49.760;6.512;2024-01-15T11:11:40;36.40;;;15.80;;
65393;SDS011;52002;49.760;6.512;2024-01-15T11:14:09;34.10;;;14.20;;
65393;SDS011;52002;49.760;6.512;2024-01-15T11:16:53;33.80;;;15.50;;
65393;SDS011;52002;49.760;6.512;2024-01-15T11:19:24;35.90;;;17.10;;
65393;SDS011;52002;49.760;6.512;2024-01-15T11:21:50;23.20;;;10.10;;
65393;SDS011;52002;49.760;6.512;2024-01-15T11:24:35;17.30;;;9.30;;
65393;SDS011;52002;49.760;6.512;2024-01-15T11:27:01;22.80;;;10.40;;
65393;SDS011;52002;49.760;6.512;2024-01-15T11:31:59;14.60;;;7.60;;
65393;SDS011;52002;49.760;6.512;2024-01-15T11:37:24;16.90;;;6.80;;
65393;SDS011;52002;49.760;6.512;2024-01-15T11:39:51;11.70;;;6.40;;
65393;SDS011;52002;49.760;6.512;2024-01-15T11:42:19;13.60;;;6.20;;
65393;SDS011;52002;49.760;6.512;2024-01-15T11:44:45;12.40;;;7.50;;
65393;SDS011;52002;49.760;6.512;2024-01-15T11:47:11;13.70;;;6.20;;
65393;SDS011;52002;49.760;6.512;2024-01-15T11:52:30;12.90;;;6.70;;
65393;SDS011;52002;49.760;6.512;2024-01-15T11:55:11;11.40;;;6.10;;
65393;SDS011;52002;49.760;6.512;2024-01-15T12:00:05;11.00;;;5.70;;
65393;SDS011;52002;49.760;6.512;2024-01-15T12:02:33;11.90;;;6.60;;
65393;SDS011;52002;49.760;6.512;2024-01-15T12:04:58;11.70;;;6.40;;
65393;SDS011;52002;49.760;6.512;2024-01-15T12:07:24;11.50;;;5.70;;
65393;SDS011;52002;49.760;6.512;2024-01-15T12:09:49;36.40;;;14.40;;
65393;SDS011;52002;49.760;6.512;2024-01-15T12:12:17;11.50;;;5.90;;
65393;SDS011;52002;49.760;6.512;2024-01-15T12:14:50;13.10;;;6.50;;
65393;SDS011;52002;49.760;6.512;2024-01-15T12:17:15;10.70;;;5.50;;
65393;SDS011;52002;49.760;6.512;2024-01-15T12:19:41;9.10;;;4.80;;
65393;SDS011;52002;49.760;6.512;2024-01-15T12:22:06;30.40;;;14.20;;
65393;SDS011;52002;49.760;6.512;2024-01-15T12:24:32;11.40;;;5.80;;
65393;SDS011;52002;49.760;6.512;2024-01-15T12:26:57;13.60;;;5.50;;
65393;SDS011;52002;49.760;6.512;2024-01-15T12:29:23;10.90;;;4.90;;
65393;SDS011;52002;49.760;6.512;2024-01-15T12:31:48;13.00;;;4.80;;
65393;SDS011;52002;49.760;6.512;2024-01-15T12:34:14;11.00;;;5.50;;
65393;SDS011;52002;49.760;6.512;2024-01-15T12:36:40;11.00;;;5.30;;
65393;SDS011;52002;49.760;6.512;2024-01-15T12:39:05;12.40;;;5.30;;
65393;SDS011;52002;49.760;6.512;2024-01-15T12:41:36;9.10;;;4.40;;
65393;SDS011;52002;49.760;6.512;2024-01-15T12:44:02;8.50;;;4.20;;
65393;SDS011;52002;49.760;6.512;2024-01-15T12:46:28;7.10;;;3.60;;
65393;SDS011;52002;49.760;6.512;2024-01-15T12:48:55;9.40;;;3.50;;
65393;SDS011;52002;49.760;6.512;2024-01-15T12:51:24;8.20;;;3.60;;
65393;SDS011;52002;49.760;6.512;2024-01-15T12:53:51;5.80;;;2.40;;
65393;SDS011;52002;49.760;6.512;2024-01-15T12:56:16;6.10;;;2.90;;
65393;SDS011;52002;49.760;6.512;2024-01-15T12:58:41;7.10;;;3.20;;
65393;SDS011;52002;49.760;6.512;2024-01-15T13:01:07;4.50;;;2.50;;
65393;SDS011;52002;49.760;6.512;2024-01-15T13:03:32;11.60;;;3.70;;
65393;SDS011;52002;49.760;6.512;2024-01-15T13:05:58;4.60;;;2.10;;
65393;SDS011;52002;49.760;6.512;2024-01-15T13:08:23;4.20;;;1.80;;
65393;SDS011;52002;49.760;6.512;2024-01-15T13:10:51;5.30;;;1.70;;
65393;SDS011;52002;49.760;6.512;2024-01-15T13:13:21;3.40;;;1.60;;
65393;SDS011;52002;49.760;6.512;2024-01-15T13:15:46;4.30;;;1.60;;
65393;SDS011;52002;49.760;6.512;2024-01-15T13:18:11;6.10;;;1.70;;
65393;SDS011;52002;49.760;6.512;2024-01-15T13:20:37;2.80;;;1.30;;
65393;SDS011;52002;49.760;6.512;2024-01-15T13:23:03;5.70;;;2.70;;
65393;SDS011;52002;49.760;6.512;2024-01-15T13:25:29;2.50;;;1.60;;
65393;SDS011;52002;49.760;6.512;2024-01-15T13:27:54;4.70;;;1.90;;
65393;SDS011;52002;49.760;6.512;2024-01-15T13:30:20;7.20;;;2.30;;
65393;SDS011;52002;49.760;6.512;2024-01-15T13:32:45;8.30;;;2.70;;
65393;SDS011;52002;49.760;6.512;2024-01-15T13:35:12;4.10;;;1.80;;
65393;SDS011;52002;49.760;6.512;2024-01-15T13:37:38;7.30;;;2.10;;
65393;SDS011;52002;49.760;6.512;2024-01-15T13:40:07;5.50;;;1.40;;
65393;SDS011;52002;49.760;6.512;2024-01-15T13:42:34;10.50;;;2.00;;
65393;SDS011;52002;49.760;6.512;2024-01-15T13:45:04;5.80;;;1.80;;
65393;SDS011;52002;49.760;6.512;2024-01-15T13:47:31;3.50;;;1.20;;
65393;SDS011;52002;49.760;6.512;2024-01-15T13:49:57;5.10;;;1.60;;
65393;SDS011;52002;49.760;6.512;2024-01-15T13:52:23;6.10;;;1.80;;
65393;SDS011;52002;49.760;6.512;2024-01-15T13:54:48;8.60;;;2.80;;
65393;SDS011;52002;49.760;6.512;2024-01-15T13:57:14;4.60;;;2.50;;
65393;SDS011;52002;49.760;6.512;2024-01-15T13:59:39;16.30;;;7.10;;
65393;SDS011;52002;49.760;6.512;2024-01-15T14:02:05;8.70;;;3.30;;
65393;SDS011;52002;49.760;6.512;2024-01-15T14:04:30;12.30;;;4.80;;
65393;SDS011;52002;49.760;6.512;2024-01-15T14:06:55;7.80;;;2.40;;
65393;SDS011;52002;49.760;6.512;2024-01-15T14:09:21;4.80;;;1.40;;
65393;SDS011;52002;49.760;6.512;2024-01-15T14:11:47;3.40;;;1.30;;
65393;SDS011;52002;49.760;6.512;2024-01-15T14:14:13;4.90;;;1.20;;
65393;SDS011;52002;49.760;6.512;2024-01-15T14:16:39;5.00;;;1.40;;
65393;SDS011;52002;49.760;6.512;2024-01-15T14:19:04;5.70;;;1.00;;
65393;SDS011;52002;49.760;6.512;2024-01-15T14:21:31;2.90;;;1.70;;
65393;SDS011;52002;49.760;6.512;2024-01-15T14:23:57;4.20;;;1.20;;
65393;SDS011;52002;49.760;6.512;2024-01-15T14:26:22;5.90;;;2.60;;
65393;SDS011;52002;49.760;6.512;2024-01-15T14:28:47;3.40;;;1.30;;
65393;SDS011;52002;49.760;6.512;2024-01-15T14:31:13;9.40;;;1.40;;